| time (UTC) | temp F | wind direction | speed MPH | gust MPH | rain 1hr in | rain 24hr in | rain mn in | humidity % | barometer mb |
| 20260506180023 | 54 | 42 | 0.0 | 0.0 | 0.00 | 0.01 | 0.00 | 47 | 1012.4 |
| 20260506163043 | 54 | 250 | 0.0 | 0.0 | 0.00 | 0.02 | 0.00 | 47 | 1012.7 |
| 20260506161509 | 53 | 288 | 0.0 | 0.0 | 0.00 | 0.02 | 0.00 | 46 | 1012.5 |
| 20260506154551 | 52 | 349 | 0.0 | 0.0 | 0.00 | 0.02 | 0.00 | 48 | 1012.4 |
| 20260506153037 | 53 | 311 | 0.0 | 0.0 | 0.00 | 0.02 | 0.00 | 47 | 1012.4 |
| 20260506151519 | 54 | 293 | 0.0 | 0.0 | 0.00 | 0.02 | 0.00 | 46 | 1012.4 |
| 20260506150027 | 54 | 335 | 0.0 | 0.0 | 0.00 | 0.02 | 0.00 | 48 | 1012.1 |
| 20260506144544 | 55 | 324 | 0.0 | 0.0 | 0.00 | 0.02 | 0.00 | 46 | 1012.1 |
| 20260506140031 | 52 | 10 | 0.0 | 1.0 | 0.00 | 0.02 | 0.00 | 52 | 1011.7 |
| 20260506101520 | 45 | 254 | 0.0 | 0.0 | 0.00 | 0.02 | 0.00 | 63 | 1009.1 |
| 20260506093043 | 46 | 254 | 0.0 | 0.0 | 0.00 | 0.02 | 0.00 | 62 | 1008.8 |
| 20260506091541 | 46 | 253 | 0.0 | 0.0 | 0.00 | 0.02 | 0.00 | 62 | 1008.5 |
| 20260506081503 | 46 | 252 | 0.0 | 0.0 | 0.00 | 0.02 | 0.00 | 62 | 1008.2 |
| 20260506080105 | 47 | 252 | 0.0 | 0.0 | 0.00 | 0.02 | 0.00 | 61 | 1008.2 |
| 20260506044513 | 48 | 252 | 0.0 | 0.0 | 0.00 | 0.15 | 0.00 | 63 | 1008.6 |
| 20260506041502 | 48 | 252 | 0.0 | 0.0 | 0.00 | 0.15 | 0.00 | 63 | 1008.4 |
| 20260506034549 | 48 | 252 | 0.0 | 0.0 | 0.00 | 0.15 | 0.15 | 63 | 1008.2 |
| 20260506030057 | 49 | 252 | 0.0 | 0.0 | 0.00 | 0.15 | 0.15 | 60 | 1008.4 |
| 20260506023052 | 49 | 252 | 0.0 | 0.0 | 0.00 | 0.15 | 0.15 | 59 | 1008.2 |
| 20260506020029 | 49 | 252 | 0.0 | 0.0 | 0.00 | 0.15 | 0.15 | 58 | 1008.2 |
| 20260505233003 | 52 | 252 | 0.0 | 0.0 | 0.00 | 0.18 | 0.15 | 57 | 1007.0 |
| 20260505231515 | 53 | 252 | 0.0 | 0.0 | 0.00 | 0.18 | 0.15 | 57 | 1006.7 |
| 20260505230023 | 53 | 252 | 0.0 | 0.0 | 0.00 | 0.18 | 0.15 | 57 | 1006.9 |
| 20260505223009 | 54 | 250 | 0.0 | 0.0 | 0.00 | 0.28 | 0.15 | 58 | 1006.9 |
| 20260505221537 | 55 | 250 | 0.0 | 0.0 | 0.00 | 0.28 | 0.15 | 58 | 1006.9 |
| 20260505220020 | 55 | 250 | 0.0 | 0.0 | 0.00 | 0.28 | 0.15 | 57 | 1006.8 |
| 20260505201505 | 57 | 280 | 0.0 | 0.0 | 0.01 | 0.28 | 0.15 | 56 | 1007.0 |